Time;durP1;ratioP1;P1;durP2;ratioP2;P2;SDS_P1;SDS_P2;PMS_P1;PMS_P2;Temp;Humidity;BMP_temperature;BMP_pressure;BME280_temperature;BME280_humidity;BME280_pressure;Samples;Min_cycle;Max_cycle;Signal;HPM_P1;HPM_P2
2023/01/12 00:01:26;;;;;;;12.82;3.30;;;8.00;99.90;;;;;;5051232;28;20435;-82
2023/01/12 00:03:53;;;;;;;14.02;2.47;;;7.90;99.90;;;;;;5053223;28;20041;-82
2023/01/12 00:06:19;;;;;;;15.25;2.67;;;7.90;99.90;;;;;;5053264;28;20067;-82
2023/01/12 00:08:46;;;;;;;17.02;3.10;;;7.90;99.90;;;;;;5050394;28;20045;-82
2023/01/12 00:11:12;;;;;;;16.27;2.70;;;7.90;99.90;;;;;;5051660;28;20040;-82
2023/01/12 00:13:37;;;;;;;17.77;2.60;;;7.90;99.90;;;;;;5052521;28;20029;-82
2023/01/12 00:18:48;;;;;;;17.90;2.72;;;7.80;99.90;;;;;;5053095;28;20514;-82
2023/01/12 00:21:14;;;;;;;18.02;3.20;;;7.80;99.90;;;;;;5053053;28;20033;-83
2023/01/12 00:23:43;;;;;;;19.10;3.10;;;7.80;99.90;;;;;;5053305;28;20053;-83
2023/01/12 00:26:09;;;;;;;17.25;3.20;;;7.80;99.90;;;;;;5053186;28;20489;-83
2023/01/12 00:28:36;;;;;;;18.58;3.55;;;7.80;99.90;;;;;;5051779;28;20037;-83
2023/01/12 00:31:03;;;;;;;22.85;3.35;;;7.70;99.90;;;;;;5051822;28;20047;-83
2023/01/12 00:33:29;;;;;;;25.27;3.63;;;7.70;99.90;;;;;;5035922;28;20036;-83
2023/01/12 00:35:54;;;;;;;15.57;3.03;;;7.70;99.90;;;;;;5053082;28;20037;-83
2023/01/12 00:38:20;;;;;;;15.48;2.60;;;7.80;99.90;;;;;;5052142;28;20037;-83
2023/01/12 00:40:46;;;;;;;18.65;2.90;;;7.80;99.90;;;;;;5052739;28;20071;-82
2023/01/12 00:45:55;;;;;;;16.95;3.10;;;7.80;99.90;;;;;;5051971;28;20103;-83
2023/01/12 00:48:21;;;;;;;15.85;3.15;;;7.80;99.90;;;;;;5045192;28;20034;-83
2023/01/12 00:50:47;;;;;;;16.95;2.72;;;7.80;99.90;;;;;;5022699;28;20041;-83
2023/01/12 00:53:12;;;;;;;13.20;2.88;;;7.80;99.90;;;;;;5047916;28;20466;-83
2023/01/12 00:55:38;;;;;;;21.13;2.95;;;7.80;99.90;;;;;;5051988;28;20073;-83
2023/01/12 00:58:04;;;;;;;22.77;3.05;;;7.80;99.90;;;;;;5051080;28;20068;-83
2023/01/12 01:00:29;;;;;;;21.92;2.63;;;7.80;99.90;;;;;;5050623;28;20037;-83
2023/01/12 01:02:55;;;;;;;27.73;2.97;;;7.80;99.90;;;;;;5035430;28;20102;-83
2023/01/12 01:05:21;;;;;;;21.58;3.10;;;7.80;99.90;;;;;;5050744;28;20037;-83
2023/01/12 01:07:46;;;;;;;16.73;2.80;;;7.90;99.90;;;;;;5052033;28;20041;-82
2023/01/12 01:10:14;;;;;;;16.13;2.60;;;7.90;99.90;;;;;;5052157;28;20041;-83
2023/01/12 01:12:40;;;;;;;13.75;2.70;;;7.90;99.90;;;;;;5035248;28;20033;-83
2023/01/12 01:15:07;;;;;;;14.50;2.53;;;7.90;99.90;;;;;;5052302;28;20094;-83
2023/01/12 01:17:32;;;;;;;20.55;3.28;;;7.90;99.90;;;;;;5050568;28;20052;-82
2023/01/12 01:19:58;;;;;;;16.27;2.35;;;7.80;99.90;;;;;;5049659;28;20494;-83
2023/01/12 01:22:23;;;;;;;18.08;3.25;;;7.80;99.90;;;;;;5049699;28;20403;-83
2023/01/12 01:24:49;;;;;;;12.00;2.70;;;7.80;99.90;;;;;;5051524;28;20621;-83
2023/01/12 01:27:15;;;;;;;13.93;2.95;;;7.80;99.90;;;;;;5051507;28;20116;-83
2023/01/12 01:29:40;;;;;;;20.58;3.40;;;7.70;99.90;;;;;;5051199;28;20068;-84
2023/01/12 01:32:06;;;;;;;13.43;2.75;;;7.70;99.90;;;;;;5051067;28;20087;-83
2023/01/12 01:34:32;;;;;;;17.20;2.92;;;7.70;99.90;;;;;;5051118;28;20554;-84
2023/01/12 01:36:58;;;;;;;21.42;3.58;;;7.70;99.90;;;;;;5051488;28;20406;-84
2023/01/12 01:39:24;;;;;;;18.30;3.08;;;7.60;99.90;;;;;;5043124;28;20095;-84
2023/01/12 01:41:50;;;;;;;22.73;3.78;;;7.60;99.90;;;;;;5031140;28;20045;-84
2023/01/12 01:44:27;;;;;;;15.63;2.70;;;7.60;99.90;;;;;;5042835;28;20045;-84
2023/01/12 01:47:18;;;;;;;18.95;3.03;;;7.70;99.90;;;;;;5031420;28;20040;-84
2023/01/12 01:49:51;;;;;;;17.70;3.28;;;7.70;99.90;;;;;;5043836;28;20048;-83
2023/01/12 01:52:28;;;;;;;19.83;2.78;;;7.80;99.90;;;;;;5045867;28;20049;-84
2023/01/12 01:55:19;;;;;;;18.70;3.40;;;7.80;99.90;;;;;;5048489;28;20409;-84
2023/01/12 01:57:54;;;;;;;13.93;2.60;;;7.80;99.90;;;;;;5044778;28;20545;-84
2023/01/12 02:00:21;;;;;;;14.90;3.15;;;7.80;99.90;;;;;;5051372;28;20133;-83
2023/01/12 02:02:47;;;;;;;22.27;3.28;;;7.80;99.90;;;;;;5038973;28;20107;-83
2023/01/12 02:05:17;;;;;;;18.63;3.15;;;7.80;99.90;;;;;;5035881;28;20048;-83
2023/01/12 02:07:43;;;;;;;15.35;3.10;;;7.80;99.90;;;;;;5051117;28;20049;-83
2023/01/12 02:10:10;;;;;;;17.70;3.38;;;7.90;99.90;;;;;;5050676;28;20044;-83
2023/01/12 02:18:09;;;;;;;22.08;4.22;;;7.90;99.90;;;;;;5050655;28;20086;-84
2023/01/12 02:21:05;;;;;;;19.80;3.45;;;7.90;99.90;;;;;;5049132;28;20510;-83
2023/01/12 02:23:42;;;;;;;22.05;3.53;;;7.90;99.90;;;;;;5039775;28;20064;-83
2023/01/12 02:26:25;;;;;;;25.55;3.45;;;7.90;99.90;;;;;;5033733;28;20593;-84
2023/01/12 02:29:25;;;;;;;19.42;3.67;;;7.90;99.90;;;;;;5050425;28;20052;-84
2023/01/12 02:32:26;;;;;;;23.00;3.83;;;7.90;99.90;;;;;;5036409;28;20072;-83
2023/01/12 02:35:28;;;;;;;21.52;3.90;;;7.90;99.90;;;;;;5050638;28;20418;-84
2023/01/12 02:38:20;;;;;;;21.13;3.80;;;7.90;99.90;;;;;;5034632;28;20061;-83
2023/01/12 02:41:12;;;;;;;19.73;3.40;;;7.90;99.90;;;;;;5030761;28;20041;-83
2023/01/12 02:43:39;;;;;;;31.48;4.03;;;7.90;99.90;;;;;;5045844;28;20554;-83
2023/01/12 02:46:15;;;;;;;20.20;3.28;;;7.90;99.90;;;;;;5050426;28;20411;-83
2023/01/12 02:48:51;;;;;;;18.30;3.17;;;7.90;99.90;;;;;;5048107;28;20056;-83
2023/01/12 02:51:27;;;;;;;19.33;4.28;;;7.90;99.90;;;;;;5050554;28;20068;-82
2023/01/12 02:54:16;;;;;;;20.02;3.53;;;8.00;99.90;;;;;;5045595;28;20039;-83
2023/01/12 02:57:09;;;;;;;13.63;2.67;;;8.00;99.90;;;;;;5044444;28;20040;-83
2023/01/12 02:59:39;;;;;;;18.92;3.25;;;8.00;99.90;;;;;;5044681;28;20045;-82
2023/01/12 03:02:15;;;;;;;17.45;3.53;;;8.00;99.90;;;;;;5040786;28;20040;-83
2023/01/12 03:04:41;;;;;;;19.35;3.03;;;8.00;99.90;;;;;;5047381;28;20119;-82
2023/01/12 03:07:49;;;;;;;22.55;3.45;;;8.00;99.90;;;;;;5026701;28;20498;-83
2023/01/12 03:10:22;;;;;;;20.65;3.35;;;8.00;99.90;;;;;;5013314;28;20451;-83
2023/01/12 03:12:50;;;;;;;20.42;3.90;;;8.00;99.90;;;;;;5032870;28;20045;-83
2023/01/12 03:15:18;;;;;;;20.27;3.75;;;8.00;99.90;;;;;;5047495;28;20067;-82
2023/01/12 03:17:55;;;;;;;27.20;4.43;;;8.00;99.90;;;;;;5048024;28;20738;-83
2023/01/12 03:20:25;;;;;;;22.40;4.10;;;8.00;99.90;;;;;;5048663;28;20091;-82
2023/01/12 03:22:55;;;;;;;21.80;3.60;;;8.00;99.90;;;;;;5043499;28;20068;-83
2023/01/12 03:25:23;;;;;;;21.42;4.28;;;8.00;99.90;;;;;;5042390;28;20048;-82
2023/01/12 03:27:52;;;;;;;21.17;3.38;;;8.10;99.90;;;;;;5041201;28;20123;-82
2023/01/12 03:30:51;;;;;;;20.08;3.65;;;8.10;99.90;;;;;;5046677;28;20115;-82
2023/01/12 03:33:16;;;;;;;19.02;4.03;;;8.10;99.90;;;;;;5045322;28;20406;-82
2023/01/12 03:36:06;;;;;;;22.27;3.40;;;8.10;99.90;;;;;;5042656;28;20036;-82
2023/01/12 03:38:35;;;;;;;20.92;3.40;;;8.10;99.90;;;;;;5040417;28;20036;-82
2023/01/12 03:41:17;;;;;;;18.60;3.65;;;8.10;99.90;;;;;;5029176;28;20045;-82
2023/01/12 03:43:49;;;;;;;19.95;3.58;;;8.10;99.90;;;;;;5042325;28;20077;-82
2023/01/12 03:46:30;;;;;;;21.27;4.10;;;8.10;99.90;;;;;;5051623;28;20045;-83
2023/01/12 03:49:16;;;;;;;16.63;2.97;;;8.10;99.90;;;;;;5051044;28;20516;-82
2023/01/12 03:51:44;;;;;;;12.20;3.10;;;8.20;99.90;;;;;;5045526;28;20049;-82
2023/01/12 03:54:13;;;;;;;22.15;3.58;;;8.20;99.90;;;;;;5051326;28;20594;-83
2023/01/12 03:56:41;;;;;;;22.10;3.47;;;8.20;99.90;;;;;;5035152;28;20041;-83
2023/01/12 03:59:08;;;;;;;19.77;3.65;;;8.30;99.90;;;;;;5036574;28;20028;-82
2023/01/12 04:01:35;;;;;;;17.88;3.67;;;8.30;99.90;;;;;;5051102;28;20040;-83
2023/01/12 04:04:01;;;;;;;16.00;2.33;;;8.30;99.90;;;;;;5051913;28;20064;-82
2023/01/12 04:06:26;;;;;;;18.48;3.20;;;8.40;99.90;;;;;;5050899;28;20075;-83
2023/01/12 04:08:52;;;;;;;21.40;3.30;;;8.30;99.90;;;;;;5034530;28;20530;-82
2023/01/12 04:14:02;;;;;;;;;;;8.40;99.90;;;;;;5052203;28;20045;-82
2023/01/12 04:16:27;;;;;;;19.50;2.83;;;8.30;99.90;;;;;;5050487;28;19916;-81
2023/01/12 04:18:53;;;;;;;19.88;3.22;;;8.40;99.90;;;;;;5047474;28;20406;-82
2023/01/12 04:24:02;;;;;;;15.13;2.70;;;8.30;99.90;;;;;;5049916;28;20416;-82
2023/01/12 04:26:28;;;;;;;14.10;2.75;;;8.30;99.90;;;;;;5044707;28;20034;-82
2023/01/12 04:28:53;;;;;;;15.05;3.00;;;8.30;99.90;;;;;;5048479;28;20128;-82
2023/01/12 04:31:19;;;;;;;12.30;2.65;;;8.30;99.90;;;;;;5042641;28;20045;-82
2023/01/12 04:33:44;;;;;;;13.30;2.65;;;8.30;99.90;;;;;;5049325;28;20086;-81
2023/01/12 04:36:10;;;;;;;9.45;2.55;;;8.30;99.90;;;;;;5050544;28;20128;-82
2023/01/12 04:38:37;;;;;;;11.95;2.58;;;8.30;99.90;;;;;;5044778;28;20611;-83
2023/01/12 04:41:03;;;;;;;10.98;2.30;;;8.30;99.90;;;;;;5046264;28;20040;-82
2023/01/12 04:43:29;;;;;;;6.88;1.70;;;8.30;99.90;;;;;;5048097;28;20052;-82
2023/01/12 04:45:54;;;;;;;10.35;2.20;;;8.30;99.90;;;;;;5043204;28;20041;-81
2023/01/12 04:48:20;;;;;;;8.32;2.15;;;8.30;99.90;;;;;;5049892;28;20040;-81
2023/01/12 04:50:46;;;;;;;10.05;2.08;;;8.30;99.90;;;;;;5050490;28;20044;-80
2023/01/12 04:53:12;;;;;;;9.65;1.90;;;8.20;99.90;;;;;;5048834;28;20554;-82
2023/01/12 04:55:40;;;;;;;6.72;1.55;;;8.20;99.90;;;;;;5049381;28;20029;-82
2023/01/12 04:58:07;;;;;;;8.93;2.10;;;8.20;99.90;;;;;;5044133;28;20038;-81
2023/01/12 05:00:32;;;;;;;6.03;1.70;;;8.20;99.90;;;;;;5048874;28;20553;-82
2023/01/12 05:03:01;;;;;;;8.05;2.05;;;8.20;99.90;;;;;;5041715;28;20041;-81
2023/01/12 05:05:32;;;;;;;8.60;1.90;;;8.20;99.90;;;;;;5049399;28;20041;-82
2023/01/12 05:10:54;;;;;;;7.28;1.85;;;8.20;99.90;;;;;;5032336;28;20534;-81
2023/01/12 05:13:21;;;;;;;6.43;1.27;;;8.20;99.90;;;;;;5036268;28;20081;-82
2023/01/12 05:15:46;;;;;;;6.43;1.60;;;8.20;99.90;;;;;;5052023;28;20029;-81
2023/01/12 05:18:12;;;;;;;5.25;1.48;;;8.20;99.90;;;;;;5052124;28;20090;-82
2023/01/12 05:20:37;;;;;;;5.40;1.40;;;8.10;99.90;;;;;;5050146;28;20047;-81
2023/01/12 05:23:03;;;;;;;7.07;1.45;;;8.10;99.90;;;;;;5051905;28;20128;-80
2023/01/12 05:25:30;;;;;;;5.32;1.40;;;8.10;99.90;;;;;;5051774;28;20112;-81
2023/01/12 05:27:58;;;;;;;4.57;1.17;;;8.10;99.90;;;;;;5051830;28;20041;-81
2023/01/12 05:30:25;;;;;;;5.50;1.40;;;8.10;99.90;;;;;;5035189;28;20491;-81
2023/01/12 05:32:51;;;;;;;6.28;1.60;;;8.10;99.90;;;;;;5047740;28;20040;-81
2023/01/12 05:35:17;;;;;;;4.75;1.48;;;8.10;99.90;;;;;;5032926;28;20037;-81
2023/01/12 05:37:42;;;;;;;4.50;1.40;;;8.10;99.90;;;;;;5029588;28;20039;-81
2023/01/12 05:40:09;;;;;;;5.15;1.40;;;8.10;99.90;;;;;;5046999;28;20049;-81
2023/01/12 05:45:18;;;;;;;;;;;8.00;99.90;;;;;;5050439;28;20039;-81
2023/01/12 05:47:44;;;;;;;6.70;1.60;;;8.00;99.90;;;;;;5044492;28;20003;-82
2023/01/12 05:50:09;;;;;;;3.00;1.27;;;8.00;99.90;;;;;;5038435;28;20072;-81
2023/01/12 05:52:35;;;;;;;4.25;1.30;;;8.10;99.90;;;;;;5032150;28;20128;-83
2023/01/12 05:55:00;;;;;;;3.58;1.30;;;8.10;99.90;;;;;;5022106;28;20057;-82
2023/01/12 05:57:28;;;;;;;3.30;1.00;;;8.10;99.90;;;;;;5038816;28;20029;-81
2023/01/12 05:59:54;;;;;;;3.50;1.17;;;8.10;99.90;;;;;;5049200;28;20033;-82
2023/01/12 06:02:20;;;;;;;3.38;1.75;;;8.00;99.90;;;;;;5048002;28;20052;-83
2023/01/12 06:04:46;;;;;;;4.25;1.33;;;8.00;99.90;;;;;;5050588;28;20506;-82
2023/01/12 06:07:12;;;;;;;2.13;0.90;;;8.00;99.90;;;;;;5050881;28;20041;-82
2023/01/12 06:09:38;;;;;;;5.57;1.38;;;8.10;99.90;;;;;;5048221;28;20060;-82
2023/01/12 06:14:48;;;;;;;;;;;8.20;99.90;;;;;;5043631;28;20130;-81
2023/01/12 06:17:13;;;;;;;2.03;1.13;;;8.20;99.90;;;;;;5047770;28;20390;-81
2023/01/12 06:19:39;;;;;;;3.97;1.25;;;8.20;99.90;;;;;;5051436;28;20422;-81
2023/01/12 06:22:06;;;;;;;3.03;1.35;;;8.20;99.90;;;;;;5051006;28;20120;-82
2023/01/12 06:24:32;;;;;;;2.20;1.02;;;8.20;99.90;;;;;;5050689;28;20043;-81
2023/01/12 06:26:57;;;;;;;5.53;1.05;;;8.30;99.90;;;;;;5048488;28;20414;-81
2023/01/12 06:29:23;;;;;;;4.32;1.00;;;8.30;99.90;;;;;;5051110;28;20041;-82
2023/01/12 06:31:49;;;;;;;3.28;0.90;;;8.30;99.90;;;;;;5035433;28;20090;-81
2023/01/12 06:34:14;;;;;;;1.25;0.73;;;8.40;99.90;;;;;;5026441;28;20036;-81
2023/01/12 06:36:40;;;;;;;3.13;0.90;;;8.40;99.90;;;;;;5048883;28;20099;-82
2023/01/12 06:39:05;;;;;;;1.80;0.65;;;8.40;99.90;;;;;;5033801;28;20041;-81
2023/01/12 06:44:17;;;;;;;2.65;0.90;;;8.40;99.90;;;;;;5037189;28;20052;-82
2023/01/12 06:46:42;;;;;;;1.38;0.80;;;8.50;99.90;;;;;;5051003;28;20040;-82
2023/01/12 06:49:08;;;;;;;2.28;1.00;;;8.50;99.90;;;;;;5047642;28;20037;-81
2023/01/12 06:51:33;;;;;;;4.03;0.90;;;8.50;99.90;;;;;;5050637;28;20041;-81
2023/01/12 06:54:00;;;;;;;2.38;1.17;;;8.60;99.90;;;;;;5041370;28;20044;-82
2023/01/12 06:56:25;;;;;;;3.15;1.20;;;8.70;99.90;;;;;;5033616;28;20033;-82
2023/01/12 06:58:51;;;;;;;4.38;1.98;;;8.80;99.90;;;;;;5049097;28;20566;-81
2023/01/12 07:01:17;;;;;;;3.20;1.77;;;8.80;99.90;;;;;;5050694;28;20088;-82
2023/01/12 07:03:42;;;;;;;6.10;1.40;;;8.80;99.90;;;;;;5049965;28;20036;-80
2023/01/12 07:06:08;;;;;;;3.47;1.80;;;8.90;99.90;;;;;;5048753;28;20041;-81
2023/01/12 07:08:33;;;;;;;5.55;2.17;;;9.00;99.90;;;;;;5040055;28;20630;-81
2023/01/12 07:11:03;;;;;;;5.45;2.55;;;9.00;99.90;;;;;;5034747;28;20041;-82
2023/01/12 07:13:30;;;;;;;6.85;2.63;;;9.20;99.90;;;;;;5030856;28;20034;-82
2023/01/12 07:16:00;;;;;;;4.63;2.20;;;9.20;99.90;;;;;;5034155;28;20116;-82
2023/01/12 07:18:27;;;;;;;7.28;2.67;;;9.20;99.90;;;;;;5035586;28;20034;-83
2023/01/12 07:20:54;;;;;;;7.35;2.70;;;9.30;99.90;;;;;;5036831;28;20033;-82
2023/01/12 07:23:19;;;;;;;6.00;2.63;;;9.30;99.90;;;;;;5035629;28;20041;-83
2023/01/12 07:25:45;;;;;;;5.05;2.40;;;9.40;99.90;;;;;;5026704;28;20037;-82
2023/01/12 07:28:10;;;;;;;5.90;2.58;;;9.40;99.90;;;;;;5033404;28;20037;-82
2023/01/12 07:30:36;;;;;;;8.00;2.42;;;9.40;99.90;;;;;;5030616;28;20048;-82
2023/01/12 07:33:10;;;;;;;10.95;2.95;;;9.40;99.90;;;;;;5028214;28;20037;-82
2023/01/12 07:35:35;;;;;;;11.90;3.10;;;9.40;99.90;;;;;;5043109;28;20103;-81
2023/01/12 07:38:01;;;;;;;8.88;2.58;;;9.50;99.90;;;;;;5052344;28;20510;-84
2023/01/12 07:40:26;;;;;;;12.45;2.67;;;9.50;99.90;;;;;;5036381;28;20516;-83
2023/01/12 07:43:06;;;;;;;7.15;2.45;;;9.50;99.90;;;;;;5025877;28;20041;-83
2023/01/12 07:45:33;;;;;;;11.35;2.60;;;9.50;99.90;;;;;;5052278;28;20082;-82
2023/01/12 07:47:58;;;;;;;12.23;2.55;;;9.60;99.90;;;;;;5036760;28;20045;-82
2023/01/12 07:50:26;;;;;;;14.23;3.15;;;9.70;99.90;;;;;;5050861;28;20049;-82
2023/01/12 07:52:53;;;;;;;14.75;3.25;;;9.70;99.90;;;;;;5038108;28;20036;-82
2023/01/12 07:55:19;;;;;;;18.05;2.75;;;9.70;99.90;;;;;;5053394;28;20459;-83
2023/01/12 07:58:02;;;;;;;17.50;3.22;;;9.80;99.90;;;;;;5052597;28;20087;-82
2023/01/12 08:00:29;;;;;;;17.35;3.50;;;9.80;99.90;;;;;;5048127;28;20048;-82
2023/01/12 08:03:03;;;;;;;15.32;2.85;;;9.80;99.90;;;;;;5048404;28;20037;-81
2023/01/12 08:05:28;;;;;;;19.65;3.38;;;9.80;99.90;;;;;;5053101;28;20068;-82
2023/01/12 08:07:54;;;;;;;22.40;3.20;;;9.80;99.90;;;;;;5036352;28;20493;-82
2023/01/12 08:10:19;;;;;;;20.40;3.55;;;9.80;99.90;;;;;;5050791;28;20460;-82
2023/01/12 08:12:45;;;;;;;19.25;3.85;;;9.90;99.90;;;;;;5046043;28;20037;-82
2023/01/12 08:15:11;;;;;;;21.85;3.28;;;9.90;99.90;;;;;;5044667;28;20024;-81
2023/01/12 08:17:50;;;;;;;28.42;4.82;;;10.00;99.90;;;;;;5049198;28;20037;-82
2023/01/12 08:20:21;;;;;;;19.00;3.67;;;10.00;99.90;;;;;;5049636;28;20614;-81
2023/01/12 08:22:50;;;;;;;21.30;3.58;;;10.00;99.90;;;;;;5049888;28;20394;-81
2023/01/12 08:25:25;;;;;;;23.00;4.07;;;10.10;99.90;;;;;;5051086;28;20041;-82
2023/01/12 08:27:55;;;;;;;18.88;3.40;;;10.00;99.90;;;;;;5043992;28;20029;-81
2023/01/12 08:30:22;;;;;;;19.60;3.60;;;10.00;99.90;;;;;;5037478;28;20045;-82
2023/01/12 08:32:48;;;;;;;25.45;3.92;;;10.00;99.90;;;;;;5051926;28;20034;-82
2023/01/12 08:35:18;;;;;;;28.80;3.88;;;10.00;99.90;;;;;;5052769;28;20559;-81
2023/01/12 08:37:44;;;;;;;25.83;3.70;;;10.10;99.90;;;;;;5032395;28;20049;-82
2023/01/12 08:40:10;;;;;;;23.30;4.32;;;10.10;99.90;;;;;;5041041;28;20100;-81
2023/01/12 08:42:36;;;;;;;21.08;3.60;;;10.10;99.90;;;;;;5052713;28;20036;-82
2023/01/12 08:45:01;;;;;;;24.60;3.88;;;10.20;99.90;;;;;;5039379;28;20723;-82
2023/01/12 08:47:29;;;;;;;21.25;3.47;;;10.20;99.90;;;;;;5045821;28;20080;-82
2023/01/12 08:49:55;;;;;;;19.52;3.58;;;10.20;99.90;;;;;;5047270;28;20455;-83
2023/01/12 08:52:21;;;;;;;18.63;3.13;;;10.30;99.90;;;;;;5042407;28;20073;-83
2023/01/12 08:54:48;;;;;;;20.45;3.28;;;10.30;99.90;;;;;;5045000;28;20060;-82
2023/01/12 08:57:15;;;;;;;19.00;4.18;;;10.30;99.90;;;;;;5043770;28;20675;-82
2023/01/12 08:59:40;;;;;;;19.35;3.20;;;10.30;99.90;;;;;;5050561;28;20433;-82
2023/01/12 09:02:06;;;;;;;23.00;3.25;;;10.30;99.90;;;;;;5032146;28;20048;-82
2023/01/12 09:04:31;;;;;;;18.27;3.20;;;10.30;99.90;;;;;;5044290;28;20037;-81
2023/01/12 09:06:57;;;;;;;24.17;3.95;;;10.30;99.90;;;;;;5043745;28;20502;-82
2023/01/12 09:09:23;;;;;;;23.55;3.33;;;10.30;99.90;;;;;;5040567;28;20076;-80
2023/01/12 09:11:49;;;;;;;26.70;4.18;;;10.30;99.90;;;;;;5040641;28;20428;-82
2023/01/12 09:14:15;;;;;;;20.60;3.28;;;10.30;99.90;;;;;;5030049;28;20499;-83
2023/01/12 09:16:41;;;;;;;19.85;3.72;;;10.30;99.90;;;;;;5051360;28;20037;-82
2023/01/12 09:19:08;;;;;;;18.27;3.20;;;10.30;99.90;;;;;;5048185;28;20444;-82
2023/01/12 09:21:37;;;;;;;21.35;3.53;;;10.40;99.90;;;;;;5049772;28;20036;-82
2023/01/12 09:24:03;;;;;;;18.30;2.95;;;10.30;99.90;;;;;;5043794;28;20037;-83
2023/01/12 09:26:31;;;;;;;22.45;4.53;;;10.40;99.90;;;;;;5051142;28;20443;-81
2023/01/12 09:29:01;;;;;;;18.02;3.35;;;10.40;99.90;;;;;;5051219;28;20043;-82
2023/01/12 09:31:28;;;;;;;16.30;2.70;;;10.40;99.90;;;;;;5050508;28;20402;-82
2023/01/12 09:33:55;;;;;;;19.70;3.88;;;10.40;99.90;;;;;;5032984;28;20045;-82
2023/01/12 09:36:25;;;;;;;13.65;3.28;;;10.40;99.90;;;;;;5051555;28;20041;-82
2023/01/12 09:38:51;;;;;;;22.67;3.67;;;10.50;99.90;;;;;;5051124;28;20040;-82
2023/01/12 09:46:57;;;;;;;23.55;3.60;;;10.50;99.90;;;;;;5043488;28;20037;-81
2023/01/12 09:47:29;;;;;;;10.70;2.15;;;10.50;99.90;;;;;;5050358;28;20128;-81
2023/01/12 09:50:16;;;;;;;20.08;3.40;;;10.60;99.90;;;;;;5050049;28;20048;-83
2023/01/12 09:52:50;;;;;;;23.23;3.50;;;10.60;99.90;;;;;;5045046;28;20041;-82
2023/01/12 09:55:19;;;;;;;20.02;3.00;;;10.60;99.90;;;;;;5031222;28;20052;-82
2023/01/12 09:58:17;;;;;;;19.63;3.95;;;10.60;99.90;;;;;;5048725;28;20037;-82
2023/01/12 10:00:47;;;;;;;13.98;2.42;;;10.70;99.90;;;;;;5028282;28;20037;-84
2023/01/12 10:03:23;;;;;;;15.82;3.28;;;10.70;99.90;;;;;;5049519;28;20479;-82
2023/01/12 10:05:51;;;;;;;18.55;3.22;;;10.70;99.90;;;;;;5049068;28;20076;-83
2023/01/12 10:08:29;;;;;;;14.45;3.08;;;10.70;99.90;;;;;;5050530;28;20040;-83
2023/01/12 10:11:33;;;;;;;18.20;3.25;;;10.70;99.90;;;;;;5031093;28;20041;-83
2023/01/12 10:14:34;;;;;;;15.77;2.95;;;10.80;99.90;;;;;;5014642;28;20049;-83
2023/01/12 10:17:32;;;;;;;9.77;2.15;;;10.80;99.90;;;;;;5017897;28;20036;-84
2023/01/12 10:20:04;;;;;;;16.60;2.50;;;10.90;99.90;;;;;;5050568;28;20045;-83
2023/01/12 10:22:48;;;;;;;13.02;2.83;;;11.00;99.90;;;;;;5033688;28;20059;-84
2023/01/12 10:25:34;;;;;;;12.18;2.28;;;10.90;99.90;;;;;;5033024;28;20440;-83
2023/01/12 10:28:05;;;;;;;13.55;3.17;;;10.90;99.90;;;;;;5013879;28;20052;-83
2023/01/12 10:30:34;;;;;;;15.63;2.60;;;10.90;99.90;;;;;;5043727;28;20051;-81
2023/01/12 10:33:10;;;;;;;13.90;1.92;;;10.90;99.90;;;;;;5031370;28;20458;-83
2023/01/12 10:35:46;;;;;;;11.27;2.30;;;11.00;99.90;;;;;;5031426;28;20045;-83
2023/01/12 10:38:34;;;;;;;11.45;2.30;;;10.90;99.90;;;;;;5045456;28;20040;-82
2023/01/12 10:41:09;;;;;;;18.15;2.78;;;10.90;99.90;;;;;;5050356;28;20502;-83
2023/01/12 10:43:35;;;;;;;17.98;2.92;;;10.90;99.90;;;;;;5050033;28;20049;-83
2023/01/12 10:46:25;;;;;;;16.73;2.65;;;10.80;99.90;;;;;;5050023;28;20528;-82
2023/01/12 10:48:53;;;;;;;15.18;2.50;;;10.80;99.90;;;;;;5050072;28;20041;-83
2023/01/12 10:51:25;;;;;;;16.08;2.72;;;10.80;99.90;;;;;;5049862;28;20052;-83
2023/01/12 10:53:59;;;;;;;13.63;2.53;;;11.10;99.90;;;;;;5046918;28;20533;-83
2023/01/12 10:56:34;;;;;;;15.98;2.58;;;10.90;99.90;;;;;;5051151;28;20055;-83
2023/01/12 10:59:01;;;;;;;11.48;2.67;;;10.90;99.90;;;;;;5043932;28;20082;-82
2023/01/12 11:01:48;;;;;;;13.80;2.55;;;10.90;99.90;;;;;;5050940;28;20092;-84
2023/01/12 11:04:23;;;;;;;21.17;3.55;;;11.00;99.90;;;;;;5051326;28;20510;-84
2023/01/12 11:07:13;;;;;;;12.10;2.33;;;11.00;99.90;;;;;;5054265;28;20494;-84
2023/01/12 11:09:40;;;;;;;10.02;1.85;;;11.00;99.90;;;;;;5042696;28;20048;-84
2023/01/12 11:12:34;;;;;;;12.85;2.47;;;11.10;99.90;;;;;;5047998;28;20128;-83
2023/01/12 11:15:09;;;;;;;14.68;2.55;;;11.20;99.90;;;;;;5052549;28;20511;-83
2023/01/12 11:17:47;;;;;;;10.45;2.45;;;11.30;99.90;;;;;;5045292;28;20051;-84
2023/01/12 11:20:26;;;;;;;15.52;2.47;;;11.30;99.90;;;;;;5032656;28;20037;-84
2023/01/12 11:22:56;;;;;;;15.30;2.35;;;11.40;99.90;;;;;;5046788;28;20072;-84
2023/01/12 11:25:24;;;;;;;17.30;2.55;;;11.40;99.90;;;;;;5053516;28;20037;-84
2023/01/12 11:28:05;;;;;;;10.65;1.98;;;11.40;99.90;;;;;;5049883;28;20072;-84
2023/01/12 11:30:43;;;;;;;10.25;1.85;;;11.40;99.90;;;;;;5028799;28;20041;-84
2023/01/12 11:33:20;;;;;;;11.18;2.15;;;11.50;99.90;;;;;;5044192;28;20037;-84
2023/01/12 11:35:49;;;;;;;11.75;2.33;;;11.50;99.90;;;;;;5053346;28;20033;-82
2023/01/12 11:38:37;;;;;;;11.05;1.88;;;11.50;99.90;;;;;;5047889;28;20037;-84
2023/01/12 11:41:08;;;;;;;14.90;2.25;;;11.50;99.90;;;;;;5045526;28;20091;-83
2023/01/12 11:43:57;;;;;;;12.13;2.10;;;11.50;99.90;;;;;;5034330;28;20041;-83
2023/01/12 11:46:38;;;;;;;11.93;2.60;;;11.50;99.90;;;;;;5033271;28;20041;-84
2023/01/12 11:49:23;;;;;;;10.68;2.05;;;11.50;99.90;;;;;;5030332;28;20036;-84
2023/01/12 11:51:56;;;;;;;13.30;2.40;;;11.60;99.90;;;;;;5052622;28;20040;-84
2023/01/12 11:54:24;;;;;;;11.80;2.35;;;11.70;99.90;;;;;;5054923;28;20448;-84
2023/01/12 11:57:05;;;;;;;15.32;2.33;;;11.70;99.90;;;;;;5051704;28;20041;-83
2023/01/12 12:00:16;;;;;;;13.73;2.47;;;11.80;99.90;;;;;;5049934;28;20036;-83
2023/01/12 12:03:21;;;;;;;12.18;1.80;;;11.80;99.90;;;;;;5029703;28;20128;-82
2023/01/12 12:06:01;;;;;;;10.38;2.00;;;11.70;99.90;;;;;;5032990;28;20094;-84
2023/01/12 12:08:46;;;;;;;14.75;2.63;;;11.70;99.90;;;;;;5049994;28;20033;-84
2023/01/12 12:11:23;;;;;;;13.38;2.40;;;11.70;99.90;;;;;;5049538;28;20383;-84
2023/01/12 12:14:18;;;;;;;10.93;1.92;;;11.70;99.90;;;;;;5050540;28;20122;-84
2023/01/12 12:16:59;;;;;;;17.17;2.60;;;11.70;99.90;;;;;;5034873;28;20033;-84
2023/01/12 12:19:57;;;;;;;11.95;2.15;;;11.70;99.90;;;;;;5052609;28;20033;-84
2023/01/12 12:22:47;;;;;;;15.25;3.35;;;11.70;99.90;;;;;;5042265;28;20114;-84
2023/01/12 12:25:22;;;;;;;12.32;2.42;;;11.70;99.90;;;;;;5052516;28;20044;-81
2023/01/12 12:27:54;;;;;;;14.75;2.33;;;11.60;99.90;;;;;;5052324;28;20045;-81
2023/01/12 12:30:33;;;;;;;10.85;2.13;;;11.60;99.90;;;;;;5035585;28;20077;-81
2023/01/12 12:33:08;;;;;;;13.75;2.67;;;11.60;99.90;;;;;;5051913;28;20554;-82
2023/01/12 12:35:49;;;;;;;18.10;2.83;;;11.50;99.90;;;;;;5037812;28;20108;-83
2023/01/12 12:38:44;;;;;;;11.60;2.67;;;11.50;99.90;;;;;;5031624;28;20033;-84
2023/01/12 12:47:54;;;;;;;13.38;2.42;;;11.50;99.90;;;;;;5052532;28;20064;-83
2023/01/12 12:50:22;;;;;;;13.27;2.40;;;11.40;99.90;;;;;;5052429;28;20053;-83
2023/01/12 12:53:01;;;;;;;18.73;2.88;;;11.40;99.90;;;;;;5053266;28;20067;-83
2023/01/12 12:55:26;;;;;;;13.45;2.00;;;11.50;99.90;;;;;;5033821;28;20033;-84
2023/01/12 12:58:25;;;;;;;9.75;1.98;;;11.40;99.90;;;;;;5031714;28;20036;-83
2023/01/12 13:00:53;;;;;;;11.27;2.20;;;11.50;99.90;;;;;;5046544;28;20041;-83
2023/01/12 13:03:40;;;;;;;10.95;2.33;;;11.40;99.90;;;;;;5048456;28;20071;-83
2023/01/12 13:06:21;;;;;;;14.15;2.33;;;11.40;99.90;;;;;;5031552;28;20041;-83
2023/01/12 13:08:49;;;;;;;10.02;2.08;;;11.40;99.90;;;;;;5048109;28;20045;-83
2023/01/12 13:11:17;;;;;;;12.07;2.22;;;11.40;99.90;;;;;;5041294;28;20034;-84
2023/01/12 13:14:02;;;;;;;19.48;2.50;;;11.40;99.90;;;;;;5047252;28;20442;-84
2023/01/12 13:16:28;;;;;;;14.80;2.83;;;11.40;99.90;;;;;;5047192;28;20071;-84
2023/01/12 13:18:53;;;;;;;11.35;2.60;;;11.40;99.90;;;;;;5034525;28;20188;-84
2023/01/12 13:21:25;;;;;;;11.85;2.60;;;11.40;99.90;;;;;;5039366;28;20136;-83
2023/01/12 13:23:51;;;;;;;10.40;2.45;;;11.40;99.90;;;;;;5047622;28;20568;-84
2023/01/12 13:26:35;;;;;;;12.68;2.15;;;11.30;99.90;;;;;;5049618;28;20049;-83
2023/01/12 13:29:25;;;;;;;16.23;2.65;;;11.30;99.90;;;;;;5032911;28;20433;-83
2023/01/12 13:32:30;;;;;;;15.60;2.83;;;11.30;99.90;;;;;;5062440;28;20048;-84
2023/01/12 13:34:55;;;;;;;12.82;2.90;;;11.30;99.90;;;;;;5027093;28;20056;-85
2023/01/12 13:37:43;;;;;;;13.82;2.60;;;11.30;99.90;;;;;;5051007;28;20045;-84
2023/01/12 13:40:19;;;;;;;14.55;2.78;;;11.30;99.90;;;;;;5031221;28;20041;-84
2023/01/12 13:45:31;;;;;;;22.05;3.00;;;11.30;99.90;;;;;;5040377;28;20052;-81
2023/01/12 13:47:57;;;;;;;15.10;2.90;;;11.30;99.90;;;;;;5040856;28;20037;-81
2023/01/12 13:50:26;;;;;;;14.88;3.10;;;11.30;99.90;;;;;;5022820;28;20078;-81